sensor_id;sensor_type;location;lat;lon;timestamp;noise_LAeq;noise_LA_min;noise_LA_max;noise_LA01;noise_LA95
70740;Laerm;58330;51.888;11.052;2023-08-17T00:00:41;28.46;26.83;29.79;;
70740;Laerm;58330;51.888;11.052;2023-08-17T00:03:07;28.34;27.10;29.39;;
70740;Laerm;58330;51.888;11.052;2023-08-17T00:05:33;28.29;26.91;29.56;;
70740;Laerm;58330;51.888;11.052;2023-08-17T00:08:00;28.29;26.98;29.56;;
70740;Laerm;58330;51.888;11.052;2023-08-17T00:10:26;28.27;26.89;29.47;;
70740;Laerm;58330;51.888;11.052;2023-08-17T00:12:52;28.21;26.57;29.57;;
70740;Laerm;58330;51.888;11.052;2023-08-17T00:15:19;28.22;26.93;29.38;;
70740;Laerm;58330;51.888;11.052;2023-08-17T00:17:46;28.23;26.86;29.52;;
70740;Laerm;58330;51.888;11.052;2023-08-17T00:20:13;28.20;26.85;29.57;;
70740;Laerm;58330;51.888;11.052;2023-08-17T00:22:39;28.18;26.73;29.36;;
70740;Laerm;58330;51.888;11.052;2023-08-17T00:25:05;28.16;26.61;29.45;;
70740;Laerm;58330;51.888;11.052;2023-08-17T00:27:32;28.18;26.92;29.57;;
70740;Laerm;58330;51.888;11.052;2023-08-17T00:29:58;28.17;26.84;29.52;;
70740;Laerm;58330;51.888;11.052;2023-08-17T00:32:24;28.16;26.81;29.47;;
70740;Laerm;58330;51.888;11.052;2023-08-17T00:34:52;28.19;26.79;29.27;;
70740;Laerm;58330;51.888;11.052;2023-08-17T00:37:18;28.18;26.92;29.39;;
70740;Laerm;58330;51.888;11.052;2023-08-17T00:39:45;28.19;26.98;29.33;;
70740;Laerm;58330;51.888;11.052;2023-08-17T00:42:11;28.19;26.93;29.46;;
70740;Laerm;58330;51.888;11.052;2023-08-17T00:44:37;28.22;26.89;29.54;;
70740;Laerm;58330;51.888;11.052;2023-08-17T00:47:04;28.26;26.93;29.46;;
70740;Laerm;58330;51.888;11.052;2023-08-17T00:49:30;28.29;26.95;29.65;;
70740;Laerm;58330;51.888;11.052;2023-08-17T00:51:59;28.30;26.87;29.46;;
70740;Laerm;58330;51.888;11.052;2023-08-17T00:54:26;28.33;26.94;29.58;;
70740;Laerm;58330;51.888;11.052;2023-08-17T00:56:53;28.37;26.91;29.58;;
70740;Laerm;58330;51.888;11.052;2023-08-17T00:59:19;28.41;26.93;29.72;;
70740;Laerm;58330;51.888;11.052;2023-08-17T01:01:46;28.42;27.07;29.60;;
70740;Laerm;58330;51.888;11.052;2023-08-17T01:04:13;28.42;26.89;29.66;;
70740;Laerm;58330;51.888;11.052;2023-08-17T01:06:39;28.46;27.16;29.89;;
70740;Laerm;58330;51.888;11.052;2023-08-17T01:09:07;28.52;27.25;29.88;;
70740;Laerm;58330;51.888;11.052;2023-08-17T01:11:36;28.54;27.26;29.90;;
70740;Laerm;58330;51.888;11.052;2023-08-17T01:14:04;28.56;27.00;30.01;;
70740;Laerm;58330;51.888;11.052;2023-08-17T01:16:32;28.57;26.87;29.90;;
70740;Laerm;58330;51.888;11.052;2023-08-17T01:19:00;28.58;27.14;29.78;;
70740;Laerm;58330;51.888;11.052;2023-08-17T01:21:29;28.62;27.26;30.05;;
70740;Laerm;58330;51.888;11.052;2023-08-17T01:24:04;28.63;27.17;30.05;;
70740;Laerm;58330;51.888;11.052;2023-08-17T01:26:30;28.66;27.41;29.91;;
70740;Laerm;58330;51.888;11.052;2023-08-17T01:28:56;28.67;27.22;29.96;;
70740;Laerm;58330;51.888;11.052;2023-08-17T01:31:23;28.67;27.14;29.82;;
70740;Laerm;58330;51.888;11.052;2023-08-17T01:33:54;28.80;27.31;30.40;;
70740;Laerm;58330;51.888;11.052;2023-08-17T01:36:24;28.86;27.37;30.26;;
70740;Laerm;58330;51.888;11.052;2023-08-17T01:38:51;28.98;27.69;46.88;;
70740;Laerm;58330;51.888;11.052;2023-08-17T01:41:21;29.00;27.67;33.74;;
70740;Laerm;58330;51.888;11.052;2023-08-17T01:43:48;29.05;27.82;30.43;;
70740;Laerm;58330;51.888;11.052;2023-08-17T01:46:16;29.08;27.76;30.43;;
70740;Laerm;58330;51.888;11.052;2023-08-17T01:48:43;29.20;27.89;32.13;;
70740;Laerm;58330;51.888;11.052;2023-08-17T01:51:09;29.56;27.92;42.24;;
70740;Laerm;58330;51.888;11.052;2023-08-17T01:53:36;29.38;27.77;42.46;;
70740;Laerm;58330;51.888;11.052;2023-08-17T01:56:02;29.42;28.04;42.39;;
70740;Laerm;58330;51.888;11.052;2023-08-17T01:58:30;29.51;28.00;38.01;;
70740;Laerm;58330;51.888;11.052;2023-08-17T02:00:56;29.46;27.92;33.04;;
70740;Laerm;58330;51.888;11.052;2023-08-17T02:03:22;29.46;27.95;36.42;;
70740;Laerm;58330;51.888;11.052;2023-08-17T02:05:49;29.80;28.02;51.07;;
70740;Laerm;58330;51.888;11.052;2023-08-17T02:08:15;30.08;28.30;55.52;;
70740;Laerm;58330;51.888;11.052;2023-08-17T02:10:41;29.66;28.08;41.23;;
70740;Laerm;58330;51.888;11.052;2023-08-17T02:13:08;29.47;28.20;31.55;;
70740;Laerm;58330;51.888;11.052;2023-08-17T02:15:39;29.47;28.08;34.76;;
70740;Laerm;58330;51.888;11.052;2023-08-17T02:18:05;29.56;27.96;31.69;;
70740;Laerm;58330;51.888;11.052;2023-08-17T02:20:32;29.54;28.13;39.14;;
70740;Laerm;58330;51.888;11.052;2023-08-17T02:22:58;29.45;28.17;38.55;;
70740;Laerm;58330;51.888;11.052;2023-08-17T02:25:24;29.48;27.92;38.86;;
70740;Laerm;58330;51.888;11.052;2023-08-17T02:27:51;29.48;27.97;37.14;;
70740;Laerm;58330;51.888;11.052;2023-08-17T02:30:17;29.41;27.94;33.64;;
70740;Laerm;58330;51.888;11.052;2023-08-17T02:32:45;29.54;28.01;38.55;;
70740;Laerm;58330;51.888;11.052;2023-08-17T02:35:11;29.48;27.90;33.49;;
70740;Laerm;58330;51.888;11.052;2023-08-17T02:37:37;29.43;27.85;34.16;;
70740;Laerm;58330;51.888;11.052;2023-08-17T02:40:04;29.39;28.14;34.13;;
70740;Laerm;58330;51.888;11.052;2023-08-17T02:42:30;29.38;28.03;34.41;;
70740;Laerm;58330;51.888;11.052;2023-08-17T02:44:57;29.37;27.91;33.85;;
70740;Laerm;58330;51.888;11.052;2023-08-17T02:47:23;29.37;27.98;36.72;;
70740;Laerm;58330;51.888;11.052;2023-08-17T02:49:51;29.40;27.96;35.68;;
70740;Laerm;58330;51.888;11.052;2023-08-17T02:52:17;29.78;27.99;44.94;;
70740;Laerm;58330;51.888;11.052;2023-08-17T02:54:43;29.50;28.17;36.30;;
70740;Laerm;58330;51.888;11.052;2023-08-17T02:57:10;29.46;28.05;37.44;;
70740;Laerm;58330;51.888;11.052;2023-08-17T02:59:36;29.44;28.03;34.10;;
70740;Laerm;58330;51.888;11.052;2023-08-17T03:02:02;36.05;-331.32;69.03;;
70740;Laerm;58330;51.888;11.052;2023-08-17T03:04:29;5.00;5.00;5.00;;
70740;Laerm;58330;51.888;11.052;2023-08-17T03:06:56;5.00;5.00;5.00;;
70740;Laerm;58330;51.888;11.052;2023-08-17T03:09:22;5.00;5.00;5.00;;
70740;Laerm;58330;51.888;11.052;2023-08-17T03:11:49;5.00;5.00;5.00;;
70740;Laerm;58330;51.888;11.052;2023-08-17T03:14:15;5.00;5.00;5.00;;
70740;Laerm;58330;51.888;11.052;2023-08-17T03:16:42;49.95;-52.96;86.05;;
70740;Laerm;58330;51.888;11.052;2023-08-17T03:19:08;29.68;27.81;39.29;;
70740;Laerm;58330;51.888;11.052;2023-08-17T03:21:36;29.48;28.03;37.89;;
70740;Laerm;58330;51.888;11.052;2023-08-17T03:24:04;29.36;27.92;31.83;;
70740;Laerm;58330;51.888;11.052;2023-08-17T03:26:31;29.28;27.74;32.79;;
70740;Laerm;58330;51.888;11.052;2023-08-17T03:28:57;29.26;27.94;31.14;;
70740;Laerm;58330;51.888;11.052;2023-08-17T03:31:23;29.27;27.85;32.48;;
70740;Laerm;58330;51.888;11.052;2023-08-17T03:33:49;29.30;27.84;33.76;;
70740;Laerm;58330;51.888;11.052;2023-08-17T03:36:16;29.29;27.69;34.04;;
70740;Laerm;58330;51.888;11.052;2023-08-17T03:38:42;29.28;27.78;33.42;;
70740;Laerm;58330;51.888;11.052;2023-08-17T03:41:10;29.28;27.79;31.23;;
70740;Laerm;58330;51.888;11.052;2023-08-17T03:43:36;29.25;28.00;34.05;;
70740;Laerm;58330;51.888;11.052;2023-08-17T03:46:03;29.23;27.76;30.75;;
70740;Laerm;58330;51.888;11.052;2023-08-17T03:48:30;29.24;27.73;30.62;;
70740;Laerm;58330;51.888;11.052;2023-08-17T03:50:56;29.24;27.52;30.66;;
70740;Laerm;58330;51.888;11.052;2023-08-17T03:53:22;29.24;27.71;30.64;;
70740;Laerm;58330;51.888;11.052;2023-08-17T03:55:49;29.23;27.79;30.87;;
70740;Laerm;58330;51.888;11.052;2023-08-17T03:58:17;29.23;27.79;32.38;;
70740;Laerm;58330;51.888;11.052;2023-08-17T04:00:48;29.22;27.88;31.76;;
70740;Laerm;58330;51.888;11.052;2023-08-17T04:03:14;29.24;27.87;32.38;;
70740;Laerm;58330;51.888;11.052;2023-08-17T04:05:41;29.24;27.86;30.98;;
70740;Laerm;58330;51.888;11.052;2023-08-17T04:08:08;29.24;27.90;31.10;;
70740;Laerm;58330;51.888;11.052;2023-08-17T04:10:34;29.24;27.88;30.55;;
70740;Laerm;58330;51.888;11.052;2023-08-17T04:13:00;29.22;27.73;30.55;;
70740;Laerm;58330;51.888;11.052;2023-08-17T04:15:28;29.22;27.94;30.54;;
70740;Laerm;58330;51.888;11.052;2023-08-17T04:17:54;29.23;27.77;30.53;;
70740;Laerm;58330;51.888;11.052;2023-08-17T04:20:21;29.25;27.92;30.75;;
70740;Laerm;58330;51.888;11.052;2023-08-17T04:22:47;29.25;27.90;30.75;;
70740;Laerm;58330;51.888;11.052;2023-08-17T04:25:14;29.27;27.48;30.98;;
70740;Laerm;58330;51.888;11.052;2023-08-17T04:27:40;29.26;27.96;30.45;;
70740;Laerm;58330;51.888;11.052;2023-08-17T04:30:07;29.28;27.80;30.77;;
70740;Laerm;58330;51.888;11.052;2023-08-17T04:32:35;29.29;27.85;34.76;;
70740;Laerm;58330;51.888;11.052;2023-08-17T04:35:01;29.23;27.77;30.77;;
70740;Laerm;58330;51.888;11.052;2023-08-17T04:37:28;29.24;27.52;30.73;;
70740;Laerm;58330;51.888;11.052;2023-08-17T04:39:54;29.25;27.88;30.71;;
70740;Laerm;58330;51.888;11.052;2023-08-17T04:42:20;29.26;27.41;30.74;;
70740;Laerm;58330;51.888;11.052;2023-08-17T04:44:47;29.30;27.85;30.85;;
70740;Laerm;58330;51.888;11.052;2023-08-17T04:47:13;29.26;27.93;30.57;;
70740;Laerm;58330;51.888;11.052;2023-08-17T04:49:41;29.28;27.87;31.36;;
70740;Laerm;58330;51.888;11.052;2023-08-17T04:52:07;29.29;28.03;31.93;;
70740;Laerm;58330;51.888;11.052;2023-08-17T04:54:33;29.34;27.83;41.14;;
70740;Laerm;58330;51.888;11.052;2023-08-17T04:57:00;29.33;27.90;40.22;;
70740;Laerm;58330;51.888;11.052;2023-08-17T04:59:28;29.31;27.97;30.61;;
70740;Laerm;58330;51.888;11.052;2023-08-17T05:01:54;29.28;27.90;30.54;;
70740;Laerm;58330;51.888;11.052;2023-08-17T05:04:21;29.28;27.86;30.51;;
70740;Laerm;58330;51.888;11.052;2023-08-17T05:06:48;29.24;27.55;30.46;;
70740;Laerm;58330;51.888;11.052;2023-08-17T05:09:15;29.22;27.80;30.60;;
70740;Laerm;58330;51.888;11.052;2023-08-17T05:11:41;29.23;27.84;30.71;;
70740;Laerm;58330;51.888;11.052;2023-08-17T05:14:07;29.24;27.80;30.50;;
70740;Laerm;58330;51.888;11.052;2023-08-17T05:16:34;29.26;27.87;30.76;;
70740;Laerm;58330;51.888;11.052;2023-08-17T05:19:00;29.27;27.97;30.73;;
70740;Laerm;58330;51.888;11.052;2023-08-17T05:21:26;29.28;27.93;30.50;;
70740;Laerm;58330;51.888;11.052;2023-08-17T05:23:55;29.26;27.97;30.56;;
70740;Laerm;58330;51.888;11.052;2023-08-17T05:26:22;29.26;27.68;30.44;;
70740;Laerm;58330;51.888;11.052;2023-08-17T05:28:48;29.27;27.98;30.67;;
70740;Laerm;58330;51.888;11.052;2023-08-17T05:31:14;29.23;27.48;30.40;;
70740;Laerm;58330;51.888;11.052;2023-08-17T05:33:41;29.23;27.73;30.69;;
70740;Laerm;58330;51.888;11.052;2023-08-17T05:36:07;29.19;27.65;30.61;;
70740;Laerm;58330;51.888;11.052;2023-08-17T05:38:34;29.19;27.81;30.51;;
70740;Laerm;58330;51.888;11.052;2023-08-17T05:41:02;29.22;27.76;30.50;;
70740;Laerm;58330;51.888;11.052;2023-08-17T05:43:29;29.25;27.73;30.54;;
70740;Laerm;58330;51.888;11.052;2023-08-17T05:45:56;29.18;27.70;30.47;;
70740;Laerm;58330;51.888;11.052;2023-08-17T05:48:23;29.20;27.87;30.74;;
70740;Laerm;58330;51.888;11.052;2023-08-17T05:50:49;29.26;27.75;30.62;;
70740;Laerm;58330;51.888;11.052;2023-08-17T05:53:15;29.25;27.38;30.61;;
70740;Laerm;58330;51.888;11.052;2023-08-17T05:55:42;29.26;27.77;30.77;;
70740;Laerm;58330;51.888;11.052;2023-08-17T05:58:10;29.29;27.98;30.68;;
70740;Laerm;58330;51.888;11.052;2023-08-17T06:00:37;29.28;27.77;30.57;;
70740;Laerm;58330;51.888;11.052;2023-08-17T06:03:03;29.29;27.87;31.74;;
70740;Laerm;58330;51.888;11.052;2023-08-17T06:05:30;29.30;27.85;33.93;;
70740;Laerm;58330;51.888;11.052;2023-08-17T06:07:57;29.29;27.47;30.59;;
70740;Laerm;58330;51.888;11.052;2023-08-17T06:10:23;29.28;27.91;30.53;;
70740;Laerm;58330;51.888;11.052;2023-08-17T06:12:50;29.27;27.57;30.65;;
70740;Laerm;58330;51.888;11.052;2023-08-17T06:15:17;29.26;27.98;30.54;;
70740;Laerm;58330;51.888;11.052;2023-08-17T06:17:44;29.32;27.77;33.25;;
70740;Laerm;58330;51.888;11.052;2023-08-17T06:20:11;29.32;27.95;31.01;;
70740;Laerm;58330;51.888;11.052;2023-08-17T06:22:38;29.27;27.85;30.73;;
70740;Laerm;58330;51.888;11.052;2023-08-17T06:25:05;29.30;28.01;30.68;;
70740;Laerm;58330;51.888;11.052;2023-08-17T06:27:32;55.22;-334.33;91.48;;
70740;Laerm;58330;51.888;11.052;2023-08-17T06:30:00;5.00;5.00;5.00;;
70740;Laerm;58330;51.888;11.052;2023-08-17T06:32:29;5.00;5.00;5.00;;
70740;Laerm;58330;51.888;11.052;2023-08-17T06:34:55;5.00;5.00;5.00;;
70740;Laerm;58330;51.888;11.052;2023-08-17T06:37:22;5.00;5.00;5.00;;
70740;Laerm;58330;51.888;11.052;2023-08-17T06:39:49;5.00;5.00;5.00;;
70740;Laerm;58330;51.888;11.052;2023-08-17T06:42:15;5.00;5.00;5.00;;
70740;Laerm;58330;51.888;11.052;2023-08-17T06:44:42;5.00;5.00;5.00;;
70740;Laerm;58330;51.888;11.052;2023-08-17T06:47:08;5.00;5.00;5.00;;
70740;Laerm;58330;51.888;11.052;2023-08-17T06:49:36;5.00;5.00;5.00;;
70740;Laerm;58330;51.888;11.052;2023-08-17T06:52:05;5.00;5.00;5.00;;
70740;Laerm;58330;51.888;11.052;2023-08-17T06:54:32;5.00;5.00;5.00;;
70740;Laerm;58330;51.888;11.052;2023-08-17T06:56:58;5.00;5.00;5.00;;
70740;Laerm;58330;51.888;11.052;2023-08-17T06:59:25;5.00;5.00;5.00;;
70740;Laerm;58330;51.888;11.052;2023-08-17T07:01:51;5.00;5.00;5.00;;
70740;Laerm;58330;51.888;11.052;2023-08-17T07:04:18;5.00;5.00;5.00;;
70740;Laerm;58330;51.888;11.052;2023-08-17T07:06:46;5.00;5.00;5.00;;
70740;Laerm;58330;51.888;11.052;2023-08-17T07:09:12;5.00;5.00;5.00;;
70740;Laerm;58330;51.888;11.052;2023-08-17T07:11:41;5.00;5.00;5.00;;
70740;Laerm;58330;51.888;11.052;2023-08-17T07:14:08;5.00;5.00;5.00;;
70740;Laerm;58330;51.888;11.052;2023-08-17T07:16:36;5.00;5.00;5.00;;
70740;Laerm;58330;51.888;11.052;2023-08-17T07:19:03;5.00;5.00;5.00;;
70740;Laerm;58330;51.888;11.052;2023-08-17T07:21:30;5.00;5.00;5.00;;
70740;Laerm;58330;51.888;11.052;2023-08-17T07:23:57;5.00;5.00;5.00;;
70740;Laerm;58330;51.888;11.052;2023-08-17T07:26:24;5.00;5.00;5.00;;
70740;Laerm;58330;51.888;11.052;2023-08-17T07:28:51;5.00;5.00;5.00;;
70740;Laerm;58330;51.888;11.052;2023-08-17T07:31:18;5.00;5.00;5.00;;
70740;Laerm;58330;51.888;11.052;2023-08-17T07:33:44;5.00;5.00;5.00;;
70740;Laerm;58330;51.888;11.052;2023-08-17T07:36:11;5.00;5.00;5.00;;
70740;Laerm;58330;51.888;11.052;2023-08-17T07:38:38;5.00;5.00;5.00;;
70740;Laerm;58330;51.888;11.052;2023-08-17T07:41:07;5.00;5.00;5.00;;
70740;Laerm;58330;51.888;11.052;2023-08-17T07:43:35;5.00;5.00;5.00;;
70740;Laerm;58330;51.888;11.052;2023-08-17T07:46:02;5.00;5.00;5.00;;
70740;Laerm;58330;51.888;11.052;2023-08-17T07:48:28;5.00;5.00;5.00;;
70740;Laerm;58330;51.888;11.052;2023-08-17T07:50:58;5.00;5.00;5.00;;
70740;Laerm;58330;51.888;11.052;2023-08-17T07:53:24;5.00;5.00;5.00;;
70740;Laerm;58330;51.888;11.052;2023-08-17T07:55:51;5.00;5.00;5.00;;
70740;Laerm;58330;51.888;11.052;2023-08-17T07:58:19;5.00;5.00;5.00;;
70740;Laerm;58330;51.888;11.052;2023-08-17T08:00:44;5.00;5.00;5.00;;
70740;Laerm;58330;51.888;11.052;2023-08-17T08:03:11;5.00;5.00;5.00;;
70740;Laerm;58330;51.888;11.052;2023-08-17T08:05:40;5.00;5.00;5.00;;
70740;Laerm;58330;51.888;11.052;2023-08-17T08:08:06;5.00;5.00;5.00;;
70740;Laerm;58330;51.888;11.052;2023-08-17T08:10:33;5.00;5.00;5.00;;
70740;Laerm;58330;51.888;11.052;2023-08-17T08:13:00;5.00;5.00;5.00;;
70740;Laerm;58330;51.888;11.052;2023-08-17T08:15:29;5.00;5.00;5.00;;
70740;Laerm;58330;51.888;11.052;2023-08-17T08:17:55;5.00;5.00;5.00;;
70740;Laerm;58330;51.888;11.052;2023-08-17T08:20:22;54.83;5.00;91.03;;
70740;Laerm;58330;51.888;11.052;2023-08-17T08:22:48;30.24;28.01;41.27;;
70740;Laerm;58330;51.888;11.052;2023-08-17T08:25:14;29.27;28.01;36.21;;
70740;Laerm;58330;51.888;11.052;2023-08-17T08:27:41;29.28;27.88;39.37;;
70740;Laerm;58330;51.888;11.052;2023-08-17T08:30:07;29.31;27.76;38.95;;
70740;Laerm;58330;51.888;11.052;2023-08-17T08:32:35;29.31;27.81;39.31;;
70740;Laerm;58330;51.888;11.052;2023-08-17T08:35:02;29.40;27.68;41.53;;
70740;Laerm;58330;51.888;11.052;2023-08-17T08:37:28;29.42;27.68;39.72;;
70740;Laerm;58330;51.888;11.052;2023-08-17T08:39:55;29.44;27.83;40.46;;
70740;Laerm;58330;51.888;11.052;2023-08-17T08:42:22;29.36;27.89;32.76;;
70740;Laerm;58330;51.888;11.052;2023-08-17T08:44:49;29.25;27.67;39.93;;
70740;Laerm;58330;51.888;11.052;2023-08-17T08:47:16;29.14;27.70;33.21;;
70740;Laerm;58330;51.888;11.052;2023-08-17T08:49:46;29.01;27.64;30.53;;
70740;Laerm;58330;51.888;11.052;2023-08-17T08:52:18;28.99;27.68;30.39;;
70740;Laerm;58330;51.888;11.052;2023-08-17T08:54:46;28.85;27.49;30.14;;
70740;Laerm;58330;51.888;11.052;2023-08-17T08:57:16;28.96;27.59;30.29;;
70740;Laerm;58330;51.888;11.052;2023-08-17T08:59:44;28.92;27.41;30.53;;
70740;Laerm;58330;51.888;11.052;2023-08-17T09:02:12;28.93;27.41;30.22;;
70740;Laerm;58330;51.888;11.052;2023-08-17T09:04:40;28.83;27.38;30.15;;
70740;Laerm;58330;51.888;11.052;2023-08-17T09:07:09;28.77;27.08;30.17;;
70740;Laerm;58330;51.888;11.052;2023-08-17T09:09:37;28.68;27.34;29.93;;
70740;Laerm;58330;51.888;11.052;2023-08-17T09:12:04;28.29;26.90;29.67;;
70740;Laerm;58330;51.888;11.052;2023-08-17T09:14:33;28.28;26.92;29.45;;
70740;Laerm;58330;51.888;11.052;2023-08-17T09:16:59;28.23;26.96;29.55;;
70740;Laerm;58330;51.888;11.052;2023-08-17T09:19:26;28.22;26.74;29.73;;
70740;Laerm;58330;51.888;11.052;2023-08-17T09:21:53;28.12;26.76;29.52;;
70740;Laerm;58330;51.888;11.052;2023-08-17T09:24:21;28.21;26.93;29.64;;
70740;Laerm;58330;51.888;11.052;2023-08-17T09:26:47;28.11;26.62;29.33;;
70740;Laerm;58330;51.888;11.052;2023-08-17T09:29:18;28.07;26.68;29.60;;
70740;Laerm;58330;51.888;11.052;2023-08-17T09:31:47;28.11;26.83;29.43;;
70740;Laerm;58330;51.888;11.052;2023-08-17T09:34:14;28.19;26.68;29.40;;
70740;Laerm;58330;51.888;11.052;2023-08-17T09:36:49;28.01;26.60;29.43;;
70740;Laerm;58330;51.888;11.052;2023-08-17T09:39:18;28.02;26.55;29.29;;
70740;Laerm;58330;51.888;11.052;2023-08-17T09:41:46;28.04;26.82;29.39;;
70740;Laerm;58330;51.888;11.052;2023-08-17T09:44:12;28.04;26.56;29.23;;
70740;Laerm;58330;51.888;11.052;2023-08-17T09:46:39;27.98;26.72;29.14;;
70740;Laerm;58330;51.888;11.052;2023-08-17T09:49:08;28.10;26.88;29.31;;
70740;Laerm;58330;51.888;11.052;2023-08-17T09:51:35;27.93;26.53;29.20;;
70740;Laerm;58330;51.888;11.052;2023-08-17T09:54:04;28.21;26.52;40.66;;
70740;Laerm;58330;51.888;11.052;2023-08-17T09:56:31;29.54;26.50;59.90;;
70740;Laerm;58330;51.888;11.052;2023-08-17T09:58:59;27.87;26.58;29.37;;
70740;Laerm;58330;51.888;11.052;2023-08-17T10:01:28;27.70;26.35;28.85;;
70740;Laerm;58330;51.888;11.052;2023-08-17T10:03:55;27.72;26.42;28.87;;
70740;Laerm;58330;51.888;11.052;2023-08-17T10:06:24;27.73;26.51;28.87;;
70740;Laerm;58330;51.888;11.052;2023-08-17T10:08:51;27.71;26.42;28.95;;
70740;Laerm;58330;51.888;11.052;2023-08-17T10:11:19;27.72;26.46;29.19;;
70740;Laerm;58330;51.888;11.052;2023-08-17T10:13:48;27.73;26.33;28.98;;
70740;Laerm;58330;51.888;11.052;2023-08-17T10:16:19;27.72;26.49;28.80;;
70740;Laerm;58330;51.888;11.052;2023-08-17T10:18:50;27.73;26.43;29.12;;
70740;Laerm;58330;51.888;11.052;2023-08-17T10:21:21;27.71;26.33;28.88;;
70740;Laerm;58330;51.888;11.052;2023-08-17T10:23:49;27.73;26.38;28.96;;
70740;Laerm;58330;51.888;11.052;2023-08-17T10:26:18;27.70;26.38;29.11;;
70740;Laerm;58330;51.888;11.052;2023-08-17T10:28:45;27.71;26.45;29.00;;
70740;Laerm;58330;51.888;11.052;2023-08-17T10:31:11;27.67;26.39;28.88;;
70740;Laerm;58330;51.888;11.052;2023-08-17T10:33:40;27.69;26.45;28.87;;
70740;Laerm;58330;51.888;11.052;2023-08-17T10:36:09;27.72;26.40;28.93;;
70740;Laerm;58330;51.888;11.052;2023-08-17T10:38:37;27.68;26.53;28.84;;
70740;Laerm;58330;51.888;11.052;2023-08-17T10:41:10;27.68;26.26;28.79;;
70740;Laerm;58330;51.888;11.052;2023-08-17T10:46:21;27.67;26.42;28.86;;
70740;Laerm;58330;51.888;11.052;2023-08-17T10:48:49;27.66;26.59;28.73;;
70740;Laerm;58330;51.888;11.052;2023-08-17T10:51:15;27.64;26.35;28.86;;
70740;Laerm;58330;51.888;11.052;2023-08-17T10:53:49;27.65;26.28;28.78;;
70740;Laerm;58330;51.888;11.052;2023-08-17T10:56:19;27.65;26.49;29.00;;
70740;Laerm;58330;51.888;11.052;2023-08-17T10:58:45;59.22;-328.31;93.44;;
70740;Laerm;58330;51.888;11.052;2023-08-17T11:01:11;5.00;5.00;5.00;;
70740;Laerm;58330;51.888;11.052;2023-08-17T11:03:39;5.00;5.00;5.00;;
70740;Laerm;58330;51.888;11.052;2023-08-17T11:06:15;5.00;5.00;5.00;;
70740;Laerm;58330;51.888;11.052;2023-08-17T11:11:35;5.00;5.00;5.00;;
70740;Laerm;58330;51.888;11.052;2023-08-17T11:14:02;5.00;5.00;5.00;;
70740;Laerm;58330;51.888;11.052;2023-08-17T11:16:28;5.00;5.00;5.00;;
70740;Laerm;58330;51.888;11.052;2023-08-17T11:18:55;5.00;5.00;5.00;;
70740;Laerm;58330;51.888;11.052;2023-08-17T11:21:25;5.00;5.00;5.00;;
70740;Laerm;58330;51.888;11.052;2023-08-17T11:23:53;5.00;5.00;5.00;;
70740;Laerm;58330;51.888;11.052;2023-08-17T11:26:21;5.00;5.00;5.00;;
70740;Laerm;58330;51.888;11.052;2023-08-17T11:28:47;5.00;5.00;5.00;;
70740;Laerm;58330;51.888;11.052;2023-08-17T11:31:13;60.06;5.00;95.68;;
70740;Laerm;58330;51.888;11.052;2023-08-17T11:33:40;27.78;26.30;29.31;;
70740;Laerm;58330;51.888;11.052;2023-08-17T11:36:07;27.85;26.30;28.96;;
70740;Laerm;58330;51.888;11.052;2023-08-17T11:38:36;27.89;26.67;29.40;;
70740;Laerm;58330;51.888;11.052;2023-08-17T11:41:02;27.82;26.53;29.08;;
70740;Laerm;58330;51.888;11.052;2023-08-17T11:43:29;27.81;26.21;29.30;;
70740;Laerm;58330;51.888;11.052;2023-08-17T11:45:56;27.78;26.49;29.18;;
70740;Laerm;58330;51.888;11.052;2023-08-17T11:48:23;27.82;26.60;28.98;;
70740;Laerm;58330;51.888;11.052;2023-08-17T11:50:49;27.82;26.49;29.06;;
70740;Laerm;58330;51.888;11.052;2023-08-17T11:53:16;27.84;26.58;29.04;;
70740;Laerm;58330;51.888;11.052;2023-08-17T11:55:43;27.85;26.70;29.08;;
70740;Laerm;58330;51.888;11.052;2023-08-17T11:58:10;27.91;26.52;29.57;;
70740;Laerm;58330;51.888;11.052;2023-08-17T12:00:36;27.92;26.40;29.38;;
70740;Laerm;58330;51.888;11.052;2023-08-17T12:03:05;27.98;26.72;29.39;;
70740;Laerm;58330;51.888;11.052;2023-08-17T12:05:31;28.00;26.74;29.25;;
70740;Laerm;58330;51.888;11.052;2023-08-17T12:07:58;28.01;26.80;29.89;;
70740;Laerm;58330;51.888;11.052;2023-08-17T12:10:27;28.00;26.52;29.38;;
70740;Laerm;58330;51.888;11.052;2023-08-17T12:12:56;28.01;26.83;29.32;;
70740;Laerm;58330;51.888;11.052;2023-08-17T12:15:23;27.98;26.48;29.32;;
70740;Laerm;58330;51.888;11.052;2023-08-17T12:17:49;27.98;26.59;29.45;;
70740;Laerm;58330;51.888;11.052;2023-08-17T12:20:17;27.99;26.69;29.54;;
70740;Laerm;58330;51.888;11.052;2023-08-17T12:22:44;28.00;26.61;29.64;;
70740;Laerm;58330;51.888;11.052;2023-08-17T12:25:11;28.02;26.58;29.54;;
70740;Laerm;58330;51.888;11.052;2023-08-17T12:27:37;27.99;26.59;29.88;;
70740;Laerm;58330;51.888;11.052;2023-08-17T12:30:06;27.98;26.59;31.68;;
70740;Laerm;58330;51.888;11.052;2023-08-17T12:32:37;27.99;26.51;30.88;;
70740;Laerm;58330;51.888;11.052;2023-08-17T12:35:04;28.02;26.64;29.84;;
70740;Laerm;58330;51.888;11.052;2023-08-17T12:37:30;28.01;26.66;29.98;;
70740;Laerm;58330;51.888;11.052;2023-08-17T12:39:57;28.00;26.81;29.72;;
70740;Laerm;58330;51.888;11.052;2023-08-17T12:42:23;27.98;26.67;29.40;;
70740;Laerm;58330;51.888;11.052;2023-08-17T12:44:49;27.95;26.49;29.51;;
70740;Laerm;58330;51.888;11.052;2023-08-17T12:47:17;27.88;26.37;29.00;;
70740;Laerm;58330;51.888;11.052;2023-08-17T12:49:43;27.91;26.51;30.01;;
70740;Laerm;58330;51.888;11.052;2023-08-17T12:52:09;27.91;26.43;31.01;;
70740;Laerm;58330;51.888;11.052;2023-08-17T12:54:36;27.89;26.26;29.40;;
70740;Laerm;58330;51.888;11.052;2023-08-17T12:59:27;27.93;26.51;30.44;;
70740;Laerm;58330;51.888;11.052;2023-08-17T13:01:54;27.90;26.69;30.49;;
70740;Laerm;58330;51.888;11.052;2023-08-17T13:04:22;27.92;26.67;29.32;;
70740;Laerm;58330;51.888;11.052;2023-08-17T13:06:48;27.88;26.62;29.77;;
70740;Laerm;58330;51.888;11.052;2023-08-17T13:09:16;27.83;26.47;29.64;;
70740;Laerm;58330;51.888;11.052;2023-08-17T13:11:44;27.88;26.46;29.72;;
70740;Laerm;58330;51.888;11.052;2023-08-17T13:14:10;27.89;26.51;29.39;;
70740;Laerm;58330;51.888;11.052;2023-08-17T13:16:37;27.94;26.52;31.08;;
70740;Laerm;58330;51.888;11.052;2023-08-17T13:19:03;28.00;26.70;30.23;;
70740;Laerm;58330;51.888;11.052;2023-08-17T13:21:31;27.98;26.55;30.72;;
70740;Laerm;58330;51.888;11.052;2023-08-17T13:23:58;28.03;26.71;31.72;;
70740;Laerm;58330;51.888;11.052;2023-08-17T13:26:24;27.99;26.54;30.52;;
70740;Laerm;58330;51.888;11.052;2023-08-17T13:28:50;27.89;26.40;29.50;;
70740;Laerm;58330;51.888;11.052;2023-08-17T13:31:17;27.94;26.45;29.26;;
70740;Laerm;58330;51.888;11.052;2023-08-17T13:33:43;27.98;26.71;29.33;;
70740;Laerm;58330;51.888;11.052;2023-08-17T13:36:10;27.95;26.53;31.43;;
70740;Laerm;58330;51.888;11.052;2023-08-17T13:38:38;27.85;26.52;30.15;;
70740;Laerm;58330;51.888;11.052;2023-08-17T13:41:05;27.92;26.42;29.72;;
70740;Laerm;58330;51.888;11.052;2023-08-17T13:43:31;28.05;26.68;31.51;;
70740;Laerm;58330;51.888;11.052;2023-08-17T13:45:57;27.99;26.66;29.89;;